sensor_id;sensor_type;location;lat;lon;timestamp;pressure;altitude;pressure_sealevel;temperature;humidity
15604;BME280;7902;49.042;9.092;2023-02-28T00:00:35;99876.19;;;4.25;48.84
15604;BME280;7902;49.042;9.092;2023-02-28T00:03:01;99883.28;;;4.20;48.88
15604;BME280;7902;49.042;9.092;2023-02-28T00:05:28;99879.91;;;4.18;48.52
15604;BME280;7902;49.042;9.092;2023-02-28T00:07:54;99879.59;;;4.27;48.92
15604;BME280;7902;49.042;9.092;2023-02-28T00:10:24;99876.88;;;4.30;48.66
15604;BME280;7902;49.042;9.092;2023-02-28T00:12:51;99880.59;;;4.23;48.56
15604;BME280;7902;49.042;9.092;2023-02-28T00:15:17;99879.78;;;4.21;49.05
15604;BME280;7902;49.042;9.092;2023-02-28T00:17:43;99876.69;;;4.10;48.64
15604;BME280;7902;49.042;9.092;2023-02-28T00:20:11;99875.91;;;4.08;49.30
15604;BME280;7902;49.042;9.092;2023-02-28T00:22:39;99875.06;;;4.07;48.80
15604;BME280;7902;49.042;9.092;2023-02-28T00:25:07;99878.56;;;4.06;49.13
15604;BME280;7902;49.042;9.092;2023-02-28T00:27:34;99879.22;;;4.13;48.80
15604;BME280;7902;49.042;9.092;2023-02-28T00:30:01;99880.69;;;4.20;48.62
15604;BME280;7902;49.042;9.092;2023-02-28T00:32:27;99879.41;;;4.07;49.12
15604;BME280;7902;49.042;9.092;2023-02-28T00:34:52;99878.19;;;4.17;49.21
15604;BME280;7902;49.042;9.092;2023-02-28T00:37:18;99879.97;;;4.15;48.90
15604;BME280;7902;49.042;9.092;2023-02-28T00:39:44;99879.28;;;4.10;49.23
15604;BME280;7902;49.042;9.092;2023-02-28T00:42:10;99875.63;;;4.15;49.22
15604;BME280;7902;49.042;9.092;2023-02-28T00:44:36;99878.19;;;4.17;49.15
15604;BME280;7902;49.042;9.092;2023-02-28T00:47:02;99871.50;;;4.10;49.14
15604;BME280;7902;49.042;9.092;2023-02-28T00:49:28;99879.22;;;4.13;48.96
15604;BME280;7902;49.042;9.092;2023-02-28T00:51:54;99873.31;;;4.08;49.11
15604;BME280;7902;49.042;9.092;2023-02-28T00:54:21;99861.78;;;4.15;48.90
15604;BME280;7902;49.042;9.092;2023-02-28T00:56:47;99863.78;;;4.08;49.37
15604;BME280;7902;49.042;9.092;2023-02-28T00:59:14;99863.94;;;4.04;50.01
15604;BME280;7902;49.042;9.092;2023-02-28T01:01:41;99869.13;;;4.04;49.49
15604;BME280;7902;49.042;9.092;2023-02-28T01:04:07;99869.22;;;4.01;49.43
15604;BME280;7902;49.042;9.092;2023-02-28T01:06:33;99870.81;;;4.05;49.75
15604;BME280;7902;49.042;9.092;2023-02-28T01:08:59;99871.81;;;4.01;50.01
15604;BME280;7902;49.042;9.092;2023-02-28T01:11:25;99871.81;;;4.01;49.57
15604;BME280;7902;49.042;9.092;2023-02-28T01:13:51;99868.63;;;3.92;50.53
15604;BME280;7902;49.042;9.092;2023-02-28T01:16:17;99868.13;;;4.08;49.34
15604;BME280;7902;49.042;9.092;2023-02-28T01:18:44;99872.34;;;4.10;49.92
15604;BME280;7902;49.042;9.092;2023-02-28T01:21:12;99867.16;;;4.10;49.69
15604;BME280;7902;49.042;9.092;2023-02-28T01:23:39;99856.97;;;4.04;49.67
15604;BME280;7902;49.042;9.092;2023-02-28T01:26:07;99868.16;;;4.06;49.83
15604;BME280;7902;49.042;9.092;2023-02-28T01:28:33;99866.38;;;4.08;49.01
15604;BME280;7902;49.042;9.092;2023-02-28T01:31:00;99864.72;;;4.06;49.72
15604;BME280;7902;49.042;9.092;2023-02-28T01:33:26;99861.22;;;4.07;49.78
15604;BME280;7902;49.042;9.092;2023-02-28T01:35:59;99863.31;;;3.95;50.05
15604;BME280;7902;49.042;9.092;2023-02-28T01:38:25;99863.06;;;4.03;49.77
15604;BME280;7902;49.042;9.092;2023-02-28T01:40:52;99858.03;;;3.98;49.97
15604;BME280;7902;49.042;9.092;2023-02-28T01:43:24;99859.03;;;3.94;50.29
15604;BME280;7902;49.042;9.092;2023-02-28T01:45:52;99858.88;;;3.99;49.87
15604;BME280;7902;49.042;9.092;2023-02-28T01:48:21;99854.53;;;4.00;49.80
15604;BME280;7902;49.042;9.092;2023-02-28T01:50:52;99859.94;;;3.93;50.41
15604;BME280;7902;49.042;9.092;2023-02-28T01:53:24;99858.22;;;3.92;50.04
15604;BME280;7902;49.042;9.092;2023-02-28T01:55:53;99845.94;;;3.97;49.97
15604;BME280;7902;49.042;9.092;2023-02-28T01:58:19;99850.44;;;3.92;50.36
15604;BME280;7902;49.042;9.092;2023-02-28T02:00:45;99849.66;;;3.90;50.27
15604;BME280;7902;49.042;9.092;2023-02-28T02:03:14;99852.84;;;3.98;50.22
15604;BME280;7902;49.042;9.092;2023-02-28T02:05:41;99853.88;;;3.93;50.32
15604;BME280;7902;49.042;9.092;2023-02-28T02:08:13;99836.44;;;3.96;50.42
15604;BME280;7902;49.042;9.092;2023-02-28T02:10:43;99843.22;;;4.01;50.24
15604;BME280;7902;49.042;9.092;2023-02-28T02:16:14;99834.81;;;3.94;50.54
15604;BME280;7902;49.042;9.092;2023-02-28T02:18:51;99835.66;;;3.94;50.26
15604;BME280;7902;49.042;9.092;2023-02-28T02:36:14;99830.00;;;3.82;50.79
15604;BME280;7902;49.042;9.092;2023-02-28T02:38:50;99826.50;;;3.83;50.78
15604;BME280;7902;49.042;9.092;2023-02-28T02:41:28;99833.53;;;3.81;50.89
15604;BME280;7902;49.042;9.092;2023-02-28T02:46:41;99830.06;;;3.80;50.70
15604;BME280;7902;49.042;9.092;2023-02-28T02:49:22;99825.50;;;3.87;50.56
15604;BME280;7902;49.042;9.092;2023-02-28T02:51:50;99822.16;;;3.83;50.62
15604;BME280;7902;49.042;9.092;2023-02-28T02:54:21;99828.88;;;3.90;50.60
15604;BME280;7902;49.042;9.092;2023-02-28T02:56:49;99822.44;;;3.76;50.93
15604;BME280;7902;49.042;9.092;2023-02-28T02:59:18;99826.78;;;3.75;51.01
15604;BME280;7902;49.042;9.092;2023-02-28T03:01:53;99837.66;;;3.86;50.96
15604;BME280;7902;49.042;9.092;2023-02-28T03:04:22;99834.47;;;3.78;51.06
15604;BME280;7902;49.042;9.092;2023-02-28T03:06:50;99832.25;;;3.92;50.75
15604;BME280;7902;49.042;9.092;2023-02-28T03:09:24;99832.25;;;3.92;50.64
15604;BME280;7902;49.042;9.092;2023-02-28T03:11:52;99827.22;;;3.88;51.10
15604;BME280;7902;49.042;9.092;2023-02-28T03:17:27;99825.03;;;4.01;50.80
15604;BME280;7902;49.042;9.092;2023-02-28T03:20:06;99820.06;;;3.94;50.83
15604;BME280;7902;49.042;9.092;2023-02-28T03:25:52;99821.53;;;4.02;50.79
15604;BME280;7902;49.042;9.092;2023-02-28T03:31:06;99835.59;;;3.96;51.42
15604;BME280;7902;49.042;9.092;2023-02-28T03:33:39;99824.13;;;4.02;50.93
15604;BME280;7902;49.042;9.092;2023-02-28T03:36:10;99824.06;;;4.05;50.84
15604;BME280;7902;49.042;9.092;2023-02-28T03:38:43;99832.44;;;4.13;50.78
15604;BME280;7902;49.042;9.092;2023-02-28T03:41:21;99831.63;;;4.11;50.96
15604;BME280;7902;49.042;9.092;2023-02-28T03:43:55;99821.00;;;4.17;50.63
15604;BME280;7902;49.042;9.092;2023-02-28T03:46:24;99826.94;;;4.20;50.60
15604;BME280;7902;49.042;9.092;2023-02-28T03:49:15;99827.69;;;4.24;50.77
15604;BME280;7902;49.042;9.092;2023-02-28T03:51:42;99830.34;;;4.22;50.58
15604;BME280;7902;49.042;9.092;2023-02-28T03:54:15;99832.78;;;4.27;50.70
15604;BME280;7902;49.042;9.092;2023-02-28T03:59:52;99832.22;;;4.19;50.67
15604;BME280;7902;49.042;9.092;2023-02-28T04:02:20;99835.47;;;4.24;50.43
15604;BME280;7902;49.042;9.092;2023-02-28T04:04:45;99832.66;;;4.30;50.36
15604;BME280;7902;49.042;9.092;2023-02-28T04:07:14;99829.38;;;4.25;50.71
15604;BME280;7902;49.042;9.092;2023-02-28T04:09:40;99829.00;;;4.35;50.34
15604;BME280;7902;49.042;9.092;2023-02-28T04:12:06;99839.69;;;4.28;50.74
15604;BME280;7902;49.042;9.092;2023-02-28T04:14:32;99832.66;;;4.30;50.54
15604;BME280;7902;49.042;9.092;2023-02-28T04:16:58;99841.59;;;4.23;50.91
15604;BME280;7902;49.042;9.092;2023-02-28T04:19:24;99841.16;;;4.35;50.11
15604;BME280;7902;49.042;9.092;2023-02-28T04:21:52;99838.06;;;4.24;50.67
15604;BME280;7902;49.042;9.092;2023-02-28T04:24:23;99840.63;;;4.25;50.56
15604;BME280;7902;49.042;9.092;2023-02-28T04:26:51;99842.69;;;4.16;51.29
15604;BME280;7902;49.042;9.092;2023-02-28T04:29:21;99839.75;;;4.26;50.73
15604;BME280;7902;49.042;9.092;2023-02-28T04:31:48;99840.84;;;4.19;50.72
15604;BME280;7902;49.042;9.092;2023-02-28T04:34:14;99840.00;;;4.19;50.72
15604;BME280;7902;49.042;9.092;2023-02-28T04:36:40;99836.41;;;4.23;50.92
15604;BME280;7902;49.042;9.092;2023-02-28T04:39:06;99833.13;;;4.18;51.17
15604;BME280;7902;49.042;9.092;2023-02-28T04:41:32;99830.19;;;4.27;50.47
15604;BME280;7902;49.042;9.092;2023-02-28T04:43:58;99833.19;;;4.39;50.34
15604;BME280;7902;49.042;9.092;2023-02-28T04:46:24;99837.09;;;4.28;50.50
15604;BME280;7902;49.042;9.092;2023-02-28T04:48:50;99834.59;;;4.25;50.85
15604;BME280;7902;49.042;9.092;2023-02-28T04:51:18;99834.59;;;4.25;51.03
15604;BME280;7902;49.042;9.092;2023-02-28T04:53:44;99832.16;;;4.20;50.96
15604;BME280;7902;49.042;9.092;2023-02-28T04:56:12;99836.56;;;4.18;50.88
15604;BME280;7902;49.042;9.092;2023-02-28T04:58:38;99835.22;;;4.07;51.27
15604;BME280;7902;49.042;9.092;2023-02-28T05:01:18;99835.47;;;4.24;50.86
15604;BME280;7902;49.042;9.092;2023-02-28T05:03:44;99846.97;;;4.18;50.92
15604;BME280;7902;49.042;9.092;2023-02-28T05:06:11;99840.84;;;4.19;51.30
15604;BME280;7902;49.042;9.092;2023-02-28T05:08:38;99841.44;;;4.27;50.95
15604;BME280;7902;49.042;9.092;2023-02-28T05:11:07;99845.75;;;4.28;50.88
15604;BME280;7902;49.042;9.092;2023-02-28T05:13:34;99838.78;;;4.29;51.15
15604;BME280;7902;49.042;9.092;2023-02-28T05:16:01;99836.41;;;4.23;51.09
15604;BME280;7902;49.042;9.092;2023-02-28T05:18:27;99838.88;;;4.26;50.93
15604;BME280;7902;49.042;9.092;2023-02-28T05:20:53;99838.59;;;4.33;50.84
15604;BME280;7902;49.042;9.092;2023-02-28T05:23:21;99832.59;;;4.33;50.81
15604;BME280;7902;49.042;9.092;2023-02-28T05:25:48;99838.53;;;4.36;51.11
15604;BME280;7902;49.042;9.092;2023-02-28T05:28:14;99840.25;;;4.36;50.48
15604;BME280;7902;49.042;9.092;2023-02-28T05:30:40;99846.34;;;4.35;50.86
15604;BME280;7902;49.042;9.092;2023-02-28T05:33:06;99849.78;;;4.37;50.68
15604;BME280;7902;49.042;9.092;2023-02-28T05:35:32;99850.78;;;4.33;50.66
15604;BME280;7902;49.042;9.092;2023-02-28T05:37:57;99848.06;;;4.36;50.66
15604;BME280;7902;49.042;9.092;2023-02-28T05:40:23;99847.25;;;4.34;50.80
15604;BME280;7902;49.042;9.092;2023-02-28T05:42:50;99850.53;;;4.39;50.85
15604;BME280;7902;49.042;9.092;2023-02-28T05:45:16;99851.69;;;4.32;51.01
15604;BME280;7902;49.042;9.092;2023-02-28T05:47:43;99849.97;;;4.31;51.20
15604;BME280;7902;49.042;9.092;2023-02-28T05:50:09;99853.47;;;4.30;50.90
15604;BME280;7902;49.042;9.092;2023-02-28T05:52:36;99855.06;;;4.34;51.36
15604;BME280;7902;49.042;9.092;2023-02-28T05:55:03;99860.38;;;4.31;50.98
15604;BME280;7902;49.042;9.092;2023-02-28T05:57:29;99857.72;;;4.32;50.81
15604;BME280;7902;49.042;9.092;2023-02-28T05:59:55;99856.63;;;4.38;50.99
15604;BME280;7902;49.042;9.092;2023-02-28T06:02:21;99856.75;;;4.35;50.81
15604;BME280;7902;49.042;9.092;2023-02-28T06:04:47;99860.94;;;4.39;50.92
15604;BME280;7902;49.042;9.092;2023-02-28T06:07:13;99860.78;;;4.43;50.67
15604;BME280;7902;49.042;9.092;2023-02-28T06:09:39;99861.78;;;4.39;50.67
15604;BME280;7902;49.042;9.092;2023-02-28T06:12:05;99865.13;;;4.43;50.95
15604;BME280;7902;49.042;9.092;2023-02-28T06:14:33;99863.34;;;4.45;50.75
15604;BME280;7902;49.042;9.092;2023-02-28T06:17:00;99858.25;;;4.42;50.82
15604;BME280;7902;49.042;9.092;2023-02-28T06:19:26;99867.56;;;4.48;50.51
15604;BME280;7902;49.042;9.092;2023-02-28T06:21:53;99862.19;;;4.52;50.52
15604;BME280;7902;49.042;9.092;2023-02-28T06:24:20;99863.28;;;4.47;50.40
15604;BME280;7902;49.042;9.092;2023-02-28T06:26:48;99866.84;;;4.44;50.88
15604;BME280;7902;49.042;9.092;2023-02-28T06:29:14;99868.88;;;4.36;51.04
15604;BME280;7902;49.042;9.092;2023-02-28T06:31:47;99866.91;;;4.43;50.85
15604;BME280;7902;49.042;9.092;2023-02-28T06:34:14;99878.81;;;4.48;50.65
15604;BME280;7902;49.042;9.092;2023-02-28T06:36:41;99879.38;;;4.33;50.71
15604;BME280;7902;49.042;9.092;2023-02-28T06:39:07;99878.91;;;4.47;50.69
15604;BME280;7902;49.042;9.092;2023-02-28T06:41:33;99886.78;;;4.43;50.39
15604;BME280;7902;49.042;9.092;2023-02-28T06:44:04;99882.91;;;4.55;50.52
15604;BME280;7902;49.042;9.092;2023-02-28T06:46:31;99890.06;;;4.49;50.67
15604;BME280;7902;49.042;9.092;2023-02-28T06:48:57;99886.97;;;4.62;50.28
15604;BME280;7902;49.042;9.092;2023-02-28T06:51:23;99888.22;;;4.52;50.60
15604;BME280;7902;49.042;9.092;2023-02-28T06:53:50;99894.22;;;4.54;50.69
15604;BME280;7902;49.042;9.092;2023-02-28T06:56:17;99894.34;;;4.51;50.40
15604;BME280;7902;49.042;9.092;2023-02-28T06:58:48;99898.56;;;4.54;50.32
15604;BME280;7902;49.042;9.092;2023-02-28T07:01:14;99904.81;;;4.48;50.72
15604;BME280;7902;49.042;9.092;2023-02-28T07:03:40;99911.53;;;4.55;50.66
15604;BME280;7902;49.042;9.092;2023-02-28T07:06:06;99906.00;;;4.39;50.97
15604;BME280;7902;49.042;9.092;2023-02-28T07:08:33;99915.72;;;4.59;50.41
15604;BME280;7902;49.042;9.092;2023-02-28T07:11:00;99920.44;;;4.48;50.79
15604;BME280;7902;49.042;9.092;2023-02-28T07:13:26;99913.28;;;4.55;50.87
15604;BME280;7902;49.042;9.092;2023-02-28T07:15:56;99916.16;;;4.47;51.00
15604;BME280;7902;49.042;9.092;2023-02-28T07:18:22;99917.91;;;4.47;50.93
15604;BME280;7902;49.042;9.092;2023-02-28T07:20:49;99918.75;;;4.47;50.73
15604;BME280;7902;49.042;9.092;2023-02-28T07:23:15;99920.38;;;4.50;50.61
15604;BME280;7902;49.042;9.092;2023-02-28T07:25:40;99916.94;;;4.49;50.73
15604;BME280;7902;49.042;9.092;2023-02-28T07:28:06;99921.03;;;4.56;50.65
15604;BME280;7902;49.042;9.092;2023-02-28T07:30:32;99919.94;;;4.62;50.34
15604;BME280;7902;49.042;9.092;2023-02-28T07:32:58;99915.66;;;4.61;51.10
15604;BME280;7902;49.042;9.092;2023-02-28T07:35:24;99924.22;;;4.64;50.65
15604;BME280;7902;49.042;9.092;2023-02-28T07:37:50;99922.47;;;4.65;50.23
15604;BME280;7902;49.042;9.092;2023-02-28T07:40:16;99921.47;;;4.67;50.60
15604;BME280;7902;49.042;9.092;2023-02-28T07:42:43;99922.97;;;4.74;50.68
15604;BME280;7902;49.042;9.092;2023-02-28T07:45:10;99927.50;;;4.69;50.45
15604;BME280;7902;49.042;9.092;2023-02-28T07:47:41;99929.25;;;4.69;50.66
15604;BME280;7902;49.042;9.092;2023-02-28T07:50:09;99927.38;;;4.72;50.47
15604;BME280;7902;49.042;9.092;2023-02-28T07:52:36;99927.34;;;4.74;50.38
15604;BME280;7902;49.042;9.092;2023-02-28T07:55:03;99932.13;;;4.61;50.67
15604;BME280;7902;49.042;9.092;2023-02-28T07:57:30;99931.72;;;4.72;50.28
15604;BME280;7902;49.042;9.092;2023-02-28T07:59:56;99932.91;;;4.63;50.42
15604;BME280;7902;49.042;9.092;2023-02-28T08:02:22;99928.34;;;4.70;50.03
15604;BME280;7902;49.042;9.092;2023-02-28T08:04:48;99925.59;;;4.74;50.81
15604;BME280;7902;49.042;9.092;2023-02-28T08:07:15;99933.91;;;4.84;50.13
15604;BME280;7902;49.042;9.092;2023-02-28T08:09:43;99930.53;;;4.80;50.12
15604;BME280;7902;49.042;9.092;2023-02-28T08:12:10;99933.06;;;4.83;50.23
15604;BME280;7902;49.042;9.092;2023-02-28T08:14:37;99933.16;;;4.80;50.25
15604;BME280;7902;49.042;9.092;2023-02-28T08:17:03;99933.94;;;4.82;50.49
15604;BME280;7902;49.042;9.092;2023-02-28T08:19:29;99929.22;;;4.94;50.22
15604;BME280;7902;49.042;9.092;2023-02-28T08:21:56;99936.00;;;4.98;49.92
15604;BME280;7902;49.042;9.092;2023-02-28T08:24:22;99930.81;;;4.98;49.86
15604;BME280;7902;49.042;9.092;2023-02-28T08:26:49;99926.50;;;4.97;49.67
15604;BME280;7902;49.042;9.092;2023-02-28T08:29:15;99924.88;;;4.94;49.92
15604;BME280;7902;49.042;9.092;2023-02-28T08:31:41;99931.06;;;4.90;50.33
15604;BME280;7902;49.042;9.092;2023-02-28T08:34:08;99929.22;;;4.94;49.76
15604;BME280;7902;49.042;9.092;2023-02-28T08:36:34;99927.31;;;4.99;50.08
15604;BME280;7902;49.042;9.092;2023-02-28T08:39:00;99941.22;;;4.98;50.02
15604;BME280;7902;49.042;9.092;2023-02-28T08:41:27;99937.25;;;4.88;50.22
15604;BME280;7902;49.042;9.092;2023-02-28T08:43:52;99933.28;;;5.01;49.76
15604;BME280;7902;49.042;9.092;2023-02-28T08:46:19;99934.09;;;5.03;49.63
15604;BME280;7902;49.042;9.092;2023-02-28T08:48:46;99927.88;;;5.07;49.65
15604;BME280;7902;49.042;9.092;2023-02-28T08:51:14;99932.84;;;5.13;49.67
15604;BME280;7902;49.042;9.092;2023-02-28T08:53:41;99931.19;;;5.10;49.59
15604;BME280;7902;49.042;9.092;2023-02-28T08:56:10;99932.69;;;5.17;49.60
15604;BME280;7902;49.042;9.092;2023-02-28T08:58:36;99932.56;;;5.20;49.59
15604;BME280;7902;49.042;9.092;2023-02-28T09:01:15;99929.66;;;5.28;49.65
15604;BME280;7902;49.042;9.092;2023-02-28T09:03:41;99931.13;;;5.35;49.08
15604;BME280;7902;49.042;9.092;2023-02-28T09:06:09;99926.03;;;5.32;49.34
15604;BME280;7902;49.042;9.092;2023-02-28T09:08:35;99925.28;;;5.28;49.72
15604;BME280;7902;49.042;9.092;2023-02-28T09:11:02;99920.94;;;5.29;49.54
15604;BME280;7902;49.042;9.092;2023-02-28T09:13:29;99928.47;;;5.37;48.75
15604;BME280;7902;49.042;9.092;2023-02-28T09:15:58;99928.78;;;5.27;49.49
15604;BME280;7902;49.042;9.092;2023-02-28T09:18:25;99933.97;;;5.29;49.77
15604;BME280;7902;49.042;9.092;2023-02-28T09:20:52;99932.84;;;5.36;49.26
15604;BME280;7902;49.042;9.092;2023-02-28T09:23:18;99927.38;;;5.42;49.26
15604;BME280;7902;49.042;9.092;2023-02-28T09:25:50;99924.84;;;5.41;49.36
15604;BME280;7902;49.042;9.092;2023-02-28T09:28:17;99918.50;;;5.24;49.79
15604;BME280;7902;49.042;9.092;2023-02-28T09:30:44;99909.94;;;5.44;49.71
15604;BME280;7902;49.042;9.092;2023-02-28T09:33:11;99919.91;;;5.33;49.65
15604;BME280;7902;49.042;9.092;2023-02-28T09:35:37;99930.34;;;5.33;50.37
15604;BME280;7902;49.042;9.092;2023-02-28T09:38:03;99923.75;;;5.46;50.01
15604;BME280;7902;49.042;9.092;2023-02-28T09:40:30;99931.31;;;5.52;49.99
15604;BME280;7902;49.042;9.092;2023-02-28T09:42:58;99934.06;;;5.49;49.66
15604;BME280;7902;49.042;9.092;2023-02-28T09:45:47;99931.28;;;5.54;49.89
15604;BME280;7902;49.042;9.092;2023-02-28T09:48:22;99933.56;;;5.61;49.72
15604;BME280;7902;49.042;9.092;2023-02-28T09:50:52;99932.84;;;5.58;49.38
15604;BME280;7902;49.042;9.092;2023-02-28T09:53:31;99933.69;;;5.58;49.36
15604;BME280;7902;49.042;9.092;2023-02-28T09:56:08;99935.03;;;5.68;49.53
15604;BME280;7902;49.042;9.092;2023-02-28T09:58:49;99933.47;;;5.64;49.24
15604;BME280;7902;49.042;9.092;2023-02-28T10:07:20;99939.22;;;5.72;49.60
15604;BME280;7902;49.042;9.092;2023-02-28T10:09:52;99937.53;;;5.71;49.01
15604;BME280;7902;49.042;9.092;2023-02-28T10:12:19;99930.50;;;5.73;49.40
15604;BME280;7902;49.042;9.092;2023-02-28T10:14:47;99930.84;;;5.88;48.71
15604;BME280;7902;49.042;9.092;2023-02-28T10:17:26;99932.50;;;5.89;49.12
15604;BME280;7902;49.042;9.092;2023-02-28T10:22:53;99944.00;;;5.83;49.27
15604;BME280;7902;49.042;9.092;2023-02-28T10:25:26;99943.16;;;5.83;49.07
15604;BME280;7902;49.042;9.092;2023-02-28T10:27:54;99935.00;;;5.92;48.53
15604;BME280;7902;49.042;9.092;2023-02-28T10:30:23;99946.09;;;5.97;48.73
15604;BME280;7902;49.042;9.092;2023-02-28T10:32:50;99941.97;;;5.91;49.25
15604;BME280;7902;49.042;9.092;2023-02-28T10:35:22;99942.75;;;5.93;48.86
15604;BME280;7902;49.042;9.092;2023-02-28T10:38:00;99942.22;;;6.07;48.93
15604;BME280;7902;49.042;9.092;2023-02-28T10:40:33;99937.09;;;6.04;48.34
15604;BME280;7902;49.042;9.092;2023-02-28T10:43:06;99943.53;;;5.95;49.14
15604;BME280;7902;49.042;9.092;2023-02-28T10:45:58;99951.47;;;6.14;48.44
15604;BME280;7902;49.042;9.092;2023-02-28T10:51:01;99941.41;;;6.05;49.17
15604;BME280;7902;49.042;9.092;2023-02-28T10:53:39;99945.00;;;6.02;48.96
15604;BME280;7902;49.042;9.092;2023-02-28T11:01:16;99932.50;;;6.10;48.54
15604;BME280;7902;49.042;9.092;2023-02-28T11:03:42;99930.28;;;6.01;48.83
15604;BME280;7902;49.042;9.092;2023-02-28T11:06:29;99928.81;;;6.16;48.59
15604;BME280;7902;49.042;9.092;2023-02-28T11:08:58;99933.06;;;6.17;49.06
15604;BME280;7902;49.042;9.092;2023-02-28T11:11:27;99924.91;;;6.26;48.63
15604;BME280;7902;49.042;9.092;2023-02-28T11:14:03;99931.06;;;6.24;48.80
15604;BME280;7902;49.042;9.092;2023-02-28T11:16:34;99923.13;;;6.27;48.85
15604;BME280;7902;49.042;9.092;2023-02-28T11:19:02;99919.69;;;6.26;48.56
15604;BME280;7902;49.042;9.092;2023-02-28T11:21:32;99922.00;;;6.32;48.47
15604;BME280;7902;49.042;9.092;2023-02-28T11:24:24;99916.81;;;6.32;48.51
15604;BME280;7902;49.042;9.092;2023-02-28T11:26:51;99914.13;;;6.34;48.31
15604;BME280;7902;49.042;9.092;2023-02-28T11:29:29;99904.81;;;6.28;48.73
15604;BME280;7902;49.042;9.092;2023-02-28T11:34:36;99902.72;;;6.36;48.41
15604;BME280;7902;49.042;9.092;2023-02-28T11:37:04;99911.97;;;6.23;48.54
15604;BME280;7902;49.042;9.092;2023-02-28T11:39:32;99907.69;;;6.42;48.34
15604;BME280;7902;49.042;9.092;2023-02-28T11:47:42;99915.66;;;6.39;48.67
15604;BME280;7902;49.042;9.092;2023-02-28T11:50:32;99913.09;;;6.38;48.45
15604;BME280;7902;49.042;9.092;2023-02-28T11:53:22;99915.00;;;6.34;48.51
15604;BME280;7902;49.042;9.092;2023-02-28T11:55:53;99914.78;;;6.39;48.22
15604;BME280;7902;49.042;9.092;2023-02-28T12:07:20;99909.75;;;6.54;48.41
15604;BME280;7902;49.042;9.092;2023-02-28T12:10:18;99906.97;;;6.59;48.04
15604;BME280;7902;49.042;9.092;2023-02-28T12:13:12;99907.88;;;6.58;48.39
15604;BME280;7902;49.042;9.092;2023-02-28T12:18:36;99905.97;;;6.61;48.65
15604;BME280;7902;49.042;9.092;2023-02-28T12:31:49;99895.47;;;6.63;48.52
15604;BME280;7902;49.042;9.092;2023-02-28T12:34:21;99895.56;;;6.80;48.16
15604;BME280;7902;49.042;9.092;2023-02-28T12:36:50;99899.94;;;6.80;48.45
15604;BME280;7902;49.042;9.092;2023-02-28T12:39:25;99903.00;;;6.69;48.54
15604;BME280;7902;49.042;9.092;2023-02-28T12:41:59;99888.19;;;6.90;47.91
15604;BME280;7902;49.042;9.092;2023-02-28T12:47:13;99883.56;;;6.76;48.54
15604;BME280;7902;49.042;9.092;2023-02-28T12:49:57;99883.38;;;6.81;48.03
15604;BME280;7902;49.042;9.092;2023-02-28T12:55:23;99875.19;;;6.88;48.02
15604;BME280;7902;49.042;9.092;2023-02-28T12:57:58;99867.22;;;6.91;48.56
15604;BME280;7902;49.042;9.092;2023-02-28T13:00:35;99863.69;;;6.92;48.37
15604;BME280;7902;49.042;9.092;2023-02-28T13:03:25;99864.25;;;6.99;48.34
15604;BME280;7902;49.042;9.092;2023-02-28T13:06:18;99869.69;;;6.94;48.33
15604;BME280;7902;49.042;9.092;2023-02-28T13:11:25;99861.72;;;6.97;48.12
15604;BME280;7902;49.042;9.092;2023-02-28T13:13:58;99861.91;;;6.93;48.18
15604;BME280;7902;49.042;9.092;2023-02-28T13:16:24;99859.09;;;6.97;48.06
15604;BME280;7902;49.042;9.092;2023-02-28T13:18:50;99866.72;;;7.02;48.87
15604;BME280;7902;49.042;9.092;2023-02-28T13:21:28;99869.28;;;7.03;48.02
15604;BME280;7902;49.042;9.092;2023-02-28T13:24:00;99863.00;;;7.07;47.48
15604;BME280;7902;49.042;9.092;2023-02-28T13:29:01;99857.84;;;7.06;48.57
15604;BME280;7902;49.042;9.092;2023-02-28T13:31:27;99866.44;;;7.08;47.97
15604;BME280;7902;49.042;9.092;2023-02-28T13:36:27;99860.09;;;7.14;48.29
15604;BME280;7902;49.042;9.092;2023-02-28T13:39:03;99854.59;;;7.20;48.04
15604;BME280;7902;49.042;9.092;2023-02-28T13:41:48;99861.28;;;7.25;47.82
15604;BME280;7902;49.042;9.092;2023-02-28T13:44:20;99866.38;;;7.28;48.33
15604;BME280;7902;49.042;9.092;2023-02-28T13:52:15;99858.53;;;7.47;48.28
15604;BME280;7902;49.042;9.092;2023-02-28T14:06:31;99868.47;;;7.58;47.70
15604;BME280;7902;49.042;9.092;2023-02-28T14:11:38;99862.28;;;7.59;48.13
15604;BME280;7902;49.042;9.092;2023-02-28T14:14:06;99865.47;;;7.65;47.56
15604;BME280;7902;49.042;9.092;2023-02-28T14:16:47;99868.25;;;7.62;47.68
15604;BME280;7902;49.042;9.092;2023-02-28T14:19:24;99860.88;;;7.70;47.97
15604;BME280;7902;49.042;9.092;2023-02-28T14:22:33;99854.16;;;7.65;47.29
15604;BME280;7902;49.042;9.092;2023-02-28T14:28:02;99861.38;;;7.60;47.81
15604;BME280;7902;49.042;9.092;2023-02-28T14:33:34;99855.25;;;7.61;48.00
15604;BME280;7902;49.042;9.092;2023-02-28T14:38:46;99859.16;;;7.69;47.54
15604;BME280;7902;49.042;9.092;2023-02-28T14:41:16;99858.94;;;7.74;48.23
15604;BME280;7902;49.042;9.092;2023-02-28T14:43:49;99860.03;;;7.70;47.39
15604;BME280;7902;49.042;9.092;2023-02-28T14:46:17;99856.63;;;7.68;47.46
15604;BME280;7902;49.042;9.092;2023-02-28T14:48:46;99857.13;;;7.76;47.69
15604;BME280;7902;49.042;9.092;2023-02-28T14:51:18;99863.56;;;7.69;47.45
15604;BME280;7902;49.042;9.092;2023-02-28T14:53:48;99858.19;;;7.72;47.37
15604;BME280;7902;49.042;9.092;2023-02-28T14:56:24;99861.56;;;7.74;47.73
15604;BME280;7902;49.042;9.092;2023-02-28T14:58:52;99868.78;;;7.69;47.60
15604;BME280;7902;49.042;9.092;2023-02-28T15:01:21;99865.25;;;7.70;47.70
15604;BME280;7902;49.042;9.092;2023-02-28T15:03:48;99863.78;;;7.64;47.57
15604;BME280;7902;49.042;9.092;2023-02-28T15:06:22;99862.16;;;7.62;47.67
15604;BME280;7902;49.042;9.092;2023-02-28T15:09:06;99865.53;;;7.64;47.87
15604;BME280;7902;49.042;9.092;2023-02-28T15:11:33;99865.72;;;7.78;47.76
15604;BME280;7902;49.042;9.092;2023-02-28T15:14:00;99857.34;;;7.71;47.42
15604;BME280;7902;49.042;9.092;2023-02-28T15:18:55;99870.91;;;7.61;47.84
15604;BME280;7902;49.042;9.092;2023-02-28T15:21:28;99867.88;;;7.70;47.55
15604;BME280;7902;49.042;9.092;2023-02-28T15:24:48;99872.25;;;7.69;48.05
15604;BME280;7902;49.042;9.092;2023-02-28T15:26:54;99872.47;;;7.65;47.53
15604;BME280;7902;49.042;9.092;2023-02-28T15:29:23;99868.03;;;7.67;47.11
15604;BME280;7902;49.042;9.092;2023-02-28T15:31:55;99867.06;;;7.50;47.82
15604;BME280;7902;49.042;9.092;2023-02-28T15:34:36;99871.22;;;7.55;47.07
15604;BME280;7902;49.042;9.092;2023-02-28T15:37:24;99867.94;;;7.68;47.32
15604;BME280;7902;49.042;9.092;2023-02-28T15:39:51;99868.25;;;7.62;48.02